Aquebogue, New York
Current Conditions -  °F | °C
As of 8:53 AM on Friday 28 Nov 2014 (Local Time) from KFOK Reporting Station
Broken Clouds Broken Clouds  
Wind Chill: 24°   Ceiling: 3500
Heat Index: 35°   Visibility: 10mi
Dew Point: 22°   Wind: 22mph
Humidity: 59%   Direction: 340°NNW
Pressure: 30.13"   Gusts: 29mph
Location:  40.94°N, 72.61°W
Report Text: KFOK 281353Z 34019G25KT 10SM BKN035 BKN041 02/M06 A3013 RMK AO2 SLP202 T00171056
Loading
Personal Weather Stations






























Interactive Weather Map New forecast layout! Learn more

10-Day Weather Forecast

Advertisements
Track Severe Weather on mobile